Time;durP1;ratioP1;P1;durP2;ratioP2;P2;SDS_P1;SDS_P2;PMS_P1;PMS_P2;Temp;Humidity;BMP_temperature;BMP_pressure;BME280_temperature;BME280_humidity;BME280_pressure;Samples;Min_cycle;Max_cycle;Signal;HPM_P1;HPM_P2
2022/01/25 00:24:20;;;;;;;49.80;19.13;;;;;;;2.91;50.04;103394.34;5007020;28;20042;-72
2022/01/25 00:27:00;;;;;;;55.03;21.88;;;;;;;2.68;50.51;103404.81;5019999;28;20498;-70
2022/01/25 00:29:33;;;;;;;49.97;19.58;;;;;;;2.90;50.08;103387.44;5023782;28;20057;-70
2022/01/25 00:31:58;;;;;;;49.22;21.88;;;;;;;3.33;49.05;103394.00;5004916;28;20042;-72
2022/01/25 00:34:24;;;;;;;49.28;19.80;;;;;;;3.37;48.94;103390.69;5017852;28;20456;-71
2022/01/25 00:36:49;;;;;;;50.10;22.40;;;;;;;3.16;49.13;103401.22;5009593;28;20112;-72
2022/01/25 00:39:15;;;;;;;54.05;21.38;;;;;;;3.27;49.11;103389.50;5018789;28;20024;-72
2022/01/25 00:41:40;;;;;;;51.35;21.58;;;;;;;3.33;49.04;103387.09;5009635;28;20395;-72
2022/01/25 00:44:06;;;;;;;55.28;20.13;;;;;;;3.52;48.90;103387.69;5010042;28;20046;-72
2022/01/25 00:46:31;;;;;;;54.95;21.40;;;;;;;3.50;48.74;103384.19;5012672;28;20034;-70
2022/01/25 00:49:02;;;;;;;49.47;19.42;;;;;;;3.27;49.38;103388.59;5015814;28;20637;-71
2022/01/25 00:54:29;;;;;;;50.22;20.05;;;;;;;3.43;48.78;103390.88;5024726;28;20033;-71
2022/01/25 00:56:55;;;;;;;52.60;20.67;;;;;;;3.51;48.60;103384.19;4999628;28;20478;-71
2022/01/25 00:59:26;;;;;;;45.42;19.10;;;;;;;3.10;49.80;103388.09;5009477;28;20042;-71
2022/01/25 01:01:56;;;;;;;54.60;22.83;;;;;;;3.23;49.56;103385.06;5008219;28;20439;-71
2022/01/25 01:04:22;;;;;;;49.97;19.13;;;;;;;3.17;49.99;103379.69;5009631;28;20038;-71
2022/01/25 01:06:48;;;;;;;54.58;21.17;;;;;;;3.36;49.46;103379.47;5021976;28;20029;-71
2022/01/25 01:09:15;;;;;;;51.35;19.67;;;;;;;3.02;49.73;103382.66;5009748;28;20028;-70
2022/01/25 01:11:51;;;;;;;52.83;21.10;;;;;;;3.27;49.69;103378.25;5007696;28;20357;-69
2022/01/25 01:48:28;;;;;;;42.10;18.00;;;;;;;3.46;49.31;103372.84;5023433;28;20045;-69
2022/01/25 01:51:00;;;;;;;54.38;18.33;;;;;;;3.51;49.01;103383.31;5025068;28;20281;-70
2022/01/25 01:53:26;;;;;;;50.53;21.27;;;;;;;3.48;49.03;103373.78;5006631;28;20047;-70
2022/01/25 01:55:51;;;;;;;51.20;20.02;;;;;;;3.37;49.48;103364.81;5008068;28;20038;-70
2022/01/25 01:58:17;;;;;;;52.78;21.42;;;;;;;3.39;49.17;103365.75;5008266;28;20426;-70
2022/01/25 02:00:46;;;;;;;53.50;20.73;;;;;;;3.43;49.18;103358.97;5026023;28;20072;-70
2022/01/25 02:03:12;;;;;;;56.88;22.02;;;;;;;3.37;49.72;103364.81;5004867;28;20044;-70
2022/01/25 02:05:38;;;;;;;51.42;21.27;;;;;;;3.48;49.13;103358.25;5008372;28;20108;-71
2022/01/25 02:08:03;;;;;;;50.65;20.55;;;;;;;3.34;48.96;103359.56;5008730;28;20631;-72
2022/01/25 02:10:29;;;;;;;46.83;21.65;;;;;;;3.53;48.61;103351.50;5009595;28;20068;-71
2022/01/25 02:12:56;;;;;;;52.15;21.10;;;;;;;3.46;48.58;103343.53;5015943;28;20034;-71
2022/01/25 02:15:25;;;;;;;50.63;21.17;;;;;;;3.37;48.99;103344.13;5006786;28;20532;-72
2022/01/25 02:23:21;;;;;;;51.72;20.17;;;;;;;3.40;48.92;103349.38;5000061;28;20103;-71
2022/01/25 02:25:49;;;;;;;47.25;19.08;;;;;;;3.54;49.13;103348.09;5004695;28;20091;-71
2022/01/25 02:28:17;;;;;;;42.63;18.70;;;;;;;3.45;49.02;103341.78;5024743;28;20034;-70
2022/01/25 02:30:44;;;;;;;52.35;20.27;;;;;;;3.33;49.29;103347.47;5005272;28;20040;-72
2022/01/25 02:33:09;;;;;;;48.10;20.83;;;;;;;3.46;49.24;103340.97;5008325;28;20026;-71
2022/01/25 02:35:36;;;;;;;51.67;21.80;;;;;;;2.82;50.75;103340.69;5007270;28;20034;-69
2022/01/25 02:38:02;;;;;;;54.15;22.35;;;;;;;2.88;50.79;103340.03;5022426;28;20056;-68
2022/01/25 02:40:28;;;;;;;52.30;20.08;;;;;;;3.14;50.25;103335.69;5009877;28;20493;-68
2022/01/25 02:42:53;;;;;;;49.42;20.55;;;;;;;3.08;49.75;103336.34;5009049;28;20064;-69
2022/01/25 02:45:19;;;;;;;50.95;19.48;;;;;;;3.06;50.15;103337.13;5012560;28;20063;-69
2022/01/25 02:50:29;;;;;;;51.08;20.20;;;;;;;3.13;49.73;103339.94;5004598;28;20037;-69
2022/01/25 02:52:55;;;;;;;46.15;21.08;;;;;;;3.19;50.20;103340.13;4981341;28;20096;-68
2022/01/25 02:55:21;;;;;;;52.10;19.90;;;;;;;3.40;49.62;103341.63;5008307;28;20088;-69
2022/01/25 02:57:47;;;;;;;50.35;21.00;;;;;;;3.24;50.03;103345.44;5021976;28;20656;-69
2022/01/25 03:00:13;;;;;;;50.63;21.00;;;;;;;3.50;49.20;103346.25;5007622;28;20041;-68
2022/01/25 03:02:39;;;;;;;50.00;20.48;;;;;;;3.26;49.75;103340.31;5006868;28;20128;-71
2022/01/25 03:05:06;;;;;;;48.58;19.50;;;;;;;3.43;49.22;103339.16;5008954;28;20121;-69
2022/01/25 03:07:32;;;;;;;52.35;21.77;;;;;;;3.51;49.43;103339.38;5020607;28;20421;-69
2022/01/25 03:09:59;;;;;;;49.40;20.55;;;;;;;3.59;49.13;103343.06;5023898;28;20038;-69
2022/01/25 03:13:12;;;;;;;54.28;21.55;;;;;;;3.09;50.06;103342.38;4994005;28;20426;-69
2022/01/25 03:17:55;;;;;;;56.67;22.92;;;;;;;3.01;50.31;103343.88;5004544;28;20034;-69
2022/01/25 03:21:17;;;;;;;53.83;22.23;;;;;;;3.36;49.40;103345.00;5007930;28;20030;-69
2022/01/25 03:23:17;;;;;;;54.28;20.83;;;;;;;3.53;49.12;103342.88;5006133;28;20124;-69
2022/01/25 03:25:43;;;;;;;51.55;20.65;;;;;;;3.53;49.04;103343.75;5005869;28;20244;-71
2022/01/25 03:28:08;;;;;;;50.17;19.83;;;;;;;3.54;48.98;103339.47;5007867;28;20490;-72
2022/01/25 03:30:34;;;;;;;53.65;20.17;;;;;;;3.39;49.12;103333.00;5020367;28;20418;-71
2022/01/25 03:33:00;;;;;;;49.30;19.55;;;;;;;3.59;48.97;103338.75;5008871;28;20049;-71
2022/01/25 03:35:25;;;;;;;50.53;19.88;;;;;;;3.48;49.22;103336.72;5006052;28;20108;-70
2022/01/25 03:37:51;;;;;;;45.63;18.25;;;;;;;3.57;48.83;103324.91;5006595;28;20060;-70
2022/01/25 03:40:16;;;;;;;47.03;20.35;;;;;;;3.59;49.24;103337.88;5006629;28;20131;-70
2022/01/25 03:42:44;;;;;;;51.13;21.50;;;;;;;3.33;49.79;103331.94;5021900;28;20060;-71
2022/01/25 03:45:17;;;;;;;52.90;21.42;;;;;;;3.32;49.34;103331.09;4997801;28;20609;-69
2022/01/25 03:47:57;;;;;;;52.70;20.52;;;;;;;3.51;48.98;103326.44;5004902;28;20536;-70
2022/01/25 03:50:23;;;;;;;50.05;19.40;;;;;;;3.52;49.20;103333.38;5005453;28;20124;-71
2022/01/25 03:52:48;;;;;;;48.45;20.67;;;;;;;3.27;50.03;103331.72;5006316;28;20063;-70
2022/01/25 03:55:14;;;;;;;49.05;20.42;;;;;;;3.23;49.73;103324.75;5007478;28;20040;-68
2022/01/25 03:57:39;;;;;;;47.90;18.67;;;;;;;3.50;49.49;103329.88;5021941;28;20060;-70
2022/01/25 04:00:07;;;;;;;52.55;20.02;;;;;;;3.58;49.22;103326.69;5008779;28;20041;-69
2022/01/25 04:02:40;;;;;;;54.83;21.08;;;;;;;2.96;50.49;103328.22;5005415;28;20045;-69
2022/01/25 04:05:14;;;;;;;51.80;19.52;;;;;;;2.95;50.83;103324.75;5006324;28;20034;-68
2022/01/25 04:07:48;;;;;;;52.88;20.38;;;;;;;3.00;51.09;103327.47;5006404;28;20046;-68
2022/01/25 04:10:13;;;;;;;52.33;21.23;;;;;;;3.07;50.61;103329.44;5012821;28;20030;-69
2022/01/25 04:12:39;;;;;;;51.13;21.50;;;;;;;3.06;50.83;103325.09;5000576;28;20045;-68
2022/01/25 04:15:05;;;;;;;54.13;20.52;;;;;;;3.15;50.50;103322.78;5010146;28;20057;-69
2022/01/25 04:17:33;;;;;;;52.30;21.55;;;;;;;3.17;50.55;103326.28;5008854;28;20044;-69
2022/01/25 04:25:37;;;;;;;48.47;20.10;;;;;;;3.22;50.49;103338.47;5010006;28;20052;-70
2022/01/25 04:28:03;;;;;;;47.28;20.98;;;;;;;3.35;50.16;103320.81;5027008;28;20249;-70
2022/01/25 04:30:29;;;;;;;54.05;22.42;;;;;;;3.09;50.32;103317.44;5010451;28;20048;-70
2022/01/25 04:48:58;;;;;;;49.90;19.83;;;;;;;3.30;50.18;103314.66;5015270;28;20068;-69
2022/01/25 04:52:03;;;;;;;48.88;20.17;;;;;;;3.14;50.96;103308.13;5026029;28;20038;-71
2022/01/25 04:59:54;;;;;;;61.13;22.48;;;;;;;3.21;50.31;103310.91;5012472;28;20087;-74
2022/01/25 05:02:34;;;;;;;57.35;21.02;;;;;;;3.20;50.62;103307.41;5014829;28;20045;-73
2022/01/25 05:05:15;;;;;;;49.65;21.38;;;;;;;3.35;50.46;103309.59;5010749;28;20033;-73
2022/01/25 05:07:55;;;;;;;56.63;20.58;;;;;;;3.50;49.78;103309.19;5021895;28;20557;-70
2022/01/25 05:10:20;;;;;;;60.88;21.10;;;;;;;3.37;50.27;103302.78;5010546;28;20041;-72
2022/01/25 05:12:52;;;;;;;47.30;20.02;;;;;;;3.51;50.23;103304.03;5007382;28;20041;-71
2022/01/25 05:18:00;;;;;;;55.08;21.13;;;;;;;3.43;50.30;103302.09;5023806;28;20041;-71
2022/01/25 05:23:09;;;;;;;48.30;20.30;;;;;;;3.68;49.73;103303.66;5009553;28;20450;-71
2022/01/25 05:25:35;;;;;;;47.05;19.38;;;;;;;3.69;49.55;103302.81;5008926;28;20037;-66
2022/01/25 05:28:00;;;;;;;48.15;20.65;;;;;;;3.63;49.64;103302.63;5008626;28;20069;-67
2022/01/25 05:30:26;;;;;;;47.00;19.83;;;;;;;3.72;49.54;103306.38;5009973;28;20075;-67
2022/01/25 05:32:51;;;;;;;51.97;20.08;;;;;;;3.74;49.33;103309.00;5008929;28;20128;-68
2022/01/25 05:35:17;;;;;;;45.35;18.10;;;;;;;3.56;49.96;103315.41;5009098;28;20046;-68
2022/01/25 05:37:43;;;;;;;47.05;19.65;;;;;;;3.62;50.11;103317.28;5007257;28;20836;-67
2022/01/25 05:40:15;;;;;;;47.38;21.95;;;;;;;3.27;50.88;103321.38;5010469;28;20030;-67
2022/01/25 05:45:20;;;;;;;41.30;18.13;;;;;;;3.73;49.74;103322.75;5007508;28;19963;-67
2022/01/25 05:47:46;;;;;;;43.70;19.40;;;;;;;3.74;49.73;103319.34;5022970;28;20038;-71
2022/01/25 05:50:14;;;;;;;46.58;20.02;;;;;;;3.78;49.76;103321.16;5007859;28;20040;-72
2022/01/25 05:52:41;;;;;;;48.85;19.77;;;;;;;3.75;49.56;103321.97;5006685;28;20103;-71
2022/01/25 05:55:08;;;;;;;50.10;21.00;;;;;;;3.75;49.65;103315.91;5026338;28;20049;-72
2022/01/25 05:57:34;;;;;;;47.97;20.85;;;;;;;3.51;50.22;103321.28;5022612;28;20042;-72
2022/01/25 06:00:00;;;;;;;51.75;19.23;;;;;;;3.58;50.03;103320.59;5010376;28;20044;-70
2022/01/25 06:02:28;;;;;;;46.53;18.42;;;;;;;3.71;49.85;103316.66;5007113;28;20064;-70
2022/01/25 06:04:54;;;;;;;51.40;21.73;;;;;;;3.72;49.61;103310.66;5008133;28;20091;-71
2022/01/25 06:07:19;;;;;;;48.10;20.02;;;;;;;3.67;49.83;103310.53;5008105;28;20274;-70
2022/01/25 06:09:47;;;;;;;49.80;21.15;;;;;;;3.57;50.24;103308.53;5010771;28;20036;-72
2022/01/25 06:12:12;;;;;;;47.13;19.67;;;;;;;3.31;51.21;103312.94;5011172;28;20123;-70
2022/01/25 06:14:38;;;;;;;55.85;20.63;;;;;;;3.31;51.33;103312.94;5024111;28;20406;-70
2022/01/25 06:17:04;;;;;;;54.33;21.85;;;;;;;3.29;50.95;103324.94;5007934;28;20402;-68
2022/01/25 06:19:29;;;;;;;55.95;21.15;;;;;;;3.59;50.23;103319.78;4995861;28;20048;-72
2022/01/25 06:21:55;;;;;;;45.28;19.60;;;;;;;3.64;50.12;103320.78;5007247;28;20071;-69
2022/01/25 06:24:20;;;;;;;57.33;20.55;;;;;;;3.69;50.18;103320.91;5007451;28;20060;-68
2022/01/25 06:26:46;;;;;;;55.40;21.15;;;;;;;3.32;50.49;103319.88;5008476;28;20609;-71
2022/01/25 06:29:16;;;;;;;55.83;21.02;;;;;;;3.57;50.53;103313.69;5007616;28;20060;-71
2022/01/25 06:31:41;;;;;;;57.10;23.02;;;;;;;3.48;50.54;103306.53;5004553;28;20045;-69
2022/01/25 06:34:06;;;;;;;37.80;18.30;;;;;;;3.43;51.11;103313.31;5009683;28;20037;-70
2022/01/25 06:36:32;;;;;;;63.13;21.15;;;;;;;3.44;50.89;103319.34;5006675;28;20044;-71
2022/01/25 06:38:59;;;;;;;47.63;21.30;;;;;;;3.44;50.87;103314.19;5023746;28;20120;-70
2022/01/25 06:41:24;;;;;;;50.20;20.50;;;;;;;3.38;51.04;103320.94;5006542;28;20065;-70
2022/01/25 06:43:50;;;;;;;57.45;21.67;;;;;;;3.43;51.19;103310.72;5006526;28;20111;-70
2022/01/25 06:46:15;;;;;;;48.65;20.27;;;;;;;3.39;51.38;103312.31;5007892;28;20219;-69
2022/01/25 06:48:41;;;;;;;51.45;21.63;;;;;;;3.21;52.02;103310.91;5021311;28;20046;-70
2022/01/25 06:51:06;;;;;;;54.15;21.27;;;;;;;3.27;51.38;103304.19;5010290;28;20032;-69
2022/01/25 06:53:32;;;;;;;59.75;22.45;;;;;;;3.11;51.88;103310.63;5003659;28;20041;-68
2022/01/25 06:55:57;;;;;;;51.10;21.42;;;;;;;3.42;51.36;103311.53;5008335;28;20040;-68
2022/01/25 06:58:23;;;;;;;56.30;23.10;;;;;;;3.31;51.31;103305.19;5007373;28;20037;-69
2022/01/25 07:00:49;;;;;;;55.08;20.45;;;;;;;2.88;53.07;103303.84;5005609;28;20832;-70
2022/01/25 07:03:14;;;;;;;50.47;19.05;;;;;;;3.18;51.84;103309.97;5009028;28;20042;-69
2022/01/25 07:05:40;;;;;;;50.00;19.35;;;;;;;3.44;51.25;103303.84;5008121;28;20399;-69
2022/01/25 07:08:06;;;;;;;56.17;22.50;;;;;;;2.94;52.45;103306.63;5009436;28;20094;-69
2022/01/25 07:10:31;;;;;;;53.83;21.35;;;;;;;3.02;52.50;103312.91;4991071;28;20482;-70
2022/01/25 07:12:57;;;;;;;47.63;20.85;;;;;;;3.21;51.68;103305.72;5008589;28;20402;-70
2022/01/25 07:15:22;;;;;;;58.50;20.65;;;;;;;3.41;51.48;103312.38;5006643;28;20049;-71
2022/01/25 07:17:48;;;;;;;57.15;22.05;;;;;;;3.37;51.58;103302.78;5006229;28;20045;-70
2022/01/25 07:20:13;;;;;;;60.08;22.13;;;;;;;3.22;51.73;103304.88;5013245;28;20024;-71
2022/01/25 07:22:41;;;;;;;58.95;20.75;;;;;;;3.45;51.57;103306.47;5006887;28;20045;-71
2022/01/25 07:25:08;;;;;;;53.08;21.60;;;;;;;3.10;52.34;103319.19;5014048;28;20045;-71
2022/01/25 07:27:34;;;;;;;48.63;20.70;;;;;;;3.27;51.77;103311.94;5020972;28;20042;-71
2022/01/25 07:30:00;;;;;;;52.20;21.80;;;;;;;3.26;52.01;103310.19;5013642;28;20417;-71
2022/01/25 07:32:25;;;;;;;56.90;22.25;;;;;;;3.52;50.99;103313.56;5010801;28;20512;-71
2022/01/25 07:34:51;;;;;;;53.25;21.20;;;;;;;3.43;51.53;103317.59;4997066;28;20037;-70
2022/01/25 07:37:16;;;;;;;51.17;21.38;;;;;;;3.35;52.03;103317.38;5005957;28;20127;-71
2022/01/25 07:39:42;;;;;;;53.88;19.77;;;;;;;3.30;51.81;103313.78;5012492;28;20033;-71
2022/01/25 07:42:09;;;;;;;57.30;21.60;;;;;;;3.45;51.22;103306.47;5031550;28;20038;-69
2022/01/25 07:44:42;;;;;;;50.97;20.95;;;;;;;3.39;51.41;103311.47;5012767;28;20033;-72
2022/01/25 07:47:10;;;;;;;48.75;20.52;;;;;;;3.03;52.50;103313.81;5023059;28;20038;-71
2022/01/25 07:49:36;;;;;;;51.25;19.95;;;;;;;3.35;51.89;103310.47;5006166;28;20068;-72
2022/01/25 07:52:03;;;;;;;47.40;19.67;;;;;;;3.34;51.54;103318.22;4990177;28;20037;-72
2022/01/25 07:54:29;;;;;;;51.88;20.02;;;;;;;3.28;52.03;103323.16;5008376;28;20410;-70
2022/01/25 07:56:55;;;;;;;53.03;19.73;;;;;;;3.19;51.76;103318.59;5004643;28;20026;-70
2022/01/25 07:59:21;;;;;;;54.53;19.30;;;;;;;3.46;51.86;103317.69;5007750;28;20041;-70
2022/01/25 08:01:47;;;;;;;54.30;20.25;;;;;;;3.43;51.69;103318.47;5006931;28;20034;-70
2022/01/25 08:04:15;;;;;;;50.90;19.45;;;;;;;3.63;51.53;103320.72;5007669;28;20598;-70
2022/01/25 08:06:41;;;;;;;50.80;20.33;;;;;;;3.68;50.92;103322.63;5005880;28;20116;-70
2022/01/25 08:09:08;;;;;;;56.15;20.23;;;;;;;3.63;51.18;103325.91;5007987;28;20177;-69
2022/01/25 08:11:35;;;;;;;54.67;19.13;;;;;;;3.63;51.34;103321.63;5023646;28;20029;-68
2022/01/25 08:14:12;;;;;;;47.22;18.48;;;;;;;3.52;51.37;103318.75;5004901;28;20656;-71
2022/01/25 08:16:43;;;;;;;48.78;19.35;;;;;;;3.73;51.37;103322.75;5005937;28;20151;-71
2022/01/25 08:19:10;;;;;;;51.95;21.13;;;;;;;3.43;51.83;103318.47;5005354;28;20046;-71
2022/01/25 08:21:42;;;;;;;49.65;19.65;;;;;;;3.29;52.02;103319.75;5022477;28;20116;-70
2022/01/25 08:24:13;;;;;;;56.17;20.05;;;;;;;3.31;52.42;103328.44;5008233;28;20497;-71
2022/01/25 08:26:41;;;;;;;58.57;18.77;;;;;;;3.46;51.75;103323.72;5005813;28;20034;-70
2022/01/25 08:29:07;;;;;;;57.10;21.63;;;;;;;3.13;52.27;103331.31;5013235;28;20065;-70
2022/01/25 08:31:32;;;;;;;51.47;18.73;;;;;;;3.46;51.70;103318.56;5005507;28;20696;-71
2022/01/25 08:33:58;;;;;;;54.92;21.60;;;;;;;3.15;52.06;103320.19;5008550;28;20039;-71
2022/01/25 08:36:24;;;;;;;54.00;19.63;;;;;;;3.17;52.49;103323.69;5006580;28;20061;-71
2022/01/25 08:38:50;;;;;;;44.05;18.73;;;;;;;3.01;53.02;103318.91;5003249;28;20056;-71
2022/01/25 08:41:17;;;;;;;53.42;19.55;;;;;;;3.32;52.29;103319.88;5006774;28;20391;-71
2022/01/25 08:43:43;;;;;;;54.13;19.60;;;;;;;3.37;52.02;103324.31;4993618;28;20046;-70
2022/01/25 08:46:08;;;;;;;57.17;18.55;;;;;;;3.40;52.11;103326.13;5007101;28;20558;-70
2022/01/25 08:48:34;;;;;;;56.70;21.75;;;;;;;3.68;51.65;103325.22;5003244;28;20138;-72
2022/01/25 08:51:01;;;;;;;49.15;19.60;;;;;;;3.67;51.27;103330.34;5007914;28;20037;-70
2022/01/25 08:53:27;;;;;;;52.78;20.75;;;;;;;3.40;51.51;103331.28;5005852;28;20026;-71
2022/01/25 08:55:52;;;;;;;52.47;19.77;;;;;;;3.54;51.56;103327.41;5009179;28;20033;-71
2022/01/25 08:58:18;;;;;;;43.38;17.88;;;;;;;3.38;52.01;103326.09;5008948;28;20040;-72
2022/01/25 09:00:44;;;;;;;52.97;18.65;;;;;;;3.25;52.50;103333.38;5007103;28;20040;-69
2022/01/25 09:03:11;;;;;;;47.45;17.98;;;;;;;3.78;51.29;103336.69;5007110;28;20770;-70
2022/01/25 09:05:37;;;;;;;46.75;19.27;;;;;;;3.50;51.95;103335.91;5005337;28;20064;-71
2022/01/25 09:08:05;;;;;;;45.97;20.02;;;;;;;3.45;52.22;103337.50;5006717;28;20526;-72
2022/01/25 09:10:31;;;;;;;56.17;21.75;;;;;;;3.49;52.02;103339.34;5005323;28;20033;-70
2022/01/25 09:12:57;;;;;;;48.38;19.58;;;;;;;3.26;52.72;103338.63;5023919;28;20030;-70
2022/01/25 09:15:22;;;;;;;49.72;19.42;;;;;;;3.77;51.61;103340.13;5005080;28;20520;-69
2022/01/25 09:17:49;;;;;;;55.85;20.20;;;;;;;2.95;53.18;103332.50;5005640;28;20118;-69
2022/01/25 09:20:15;;;;;;;56.97;21.40;;;;;;;3.01;52.96;103331.81;4991208;28;20414;-70
2022/01/25 09:22:40;;;;;;;55.65;20.42;;;;;;;3.25;52.49;103339.47;5022187;28;20034;-70
2022/01/25 09:25:06;;;;;;;51.53;20.25;;;;;;;3.52;52.48;103341.13;5005510;28;20038;-72
2022/01/25 09:27:32;;;;;;;48.75;19.23;;;;;;;3.90;51.85;103349.09;5004193;28;20124;-70
2022/01/25 09:29:57;;;;;;;50.22;20.08;;;;;;;4.08;51.24;103351.31;5015930;28;20042;-71
2022/01/25 09:32:22;;;;;;;54.03;21.98;;;;;;;3.66;51.79;103350.16;4991764;28;20049;-71
2022/01/25 09:34:49;;;;;;;49.08;19.65;;;;;;;4.12;51.22;103350.53;5021634;28;20044;-70
2022/01/25 09:37:15;;;;;;;49.30;19.42;;;;;;;4.19;50.31;103350.75;5004134;28;20053;-72
2022/01/25 09:39:41;;;;;;;45.85;19.92;;;;;;;4.08;50.34;103346.16;5007895;28;20461;-71
2022/01/25 09:42:10;;;;;;;47.38;20.35;;;;;;;3.81;51.42;103349.72;5004673;28;20462;-70
2022/01/25 09:44:38;;;;;;;54.92;21.48;;;;;;;3.82;51.28;103354.06;4994016;28;20029;-71
2022/01/25 09:47:04;;;;;;;53.95;20.38;;;;;;;3.33;52.61;103352.63;5007042;28;20049;-71
2022/01/25 09:49:32;;;;;;;59.78;19.58;;;;;;;3.39;52.42;103347.66;5006832;28;20325;-70
2022/01/25 09:52:00;;;;;;;47.35;18.73;;;;;;;3.72;51.77;103347.75;5005311;28;20108;-70
2022/01/25 09:54:26;;;;;;;51.08;19.27;;;;;;;4.06;51.50;103340.03;5008443;28;20151;-71
2022/01/25 09:56:51;;;;;;;48.88;19.08;;;;;;;3.82;52.01;103338.53;5005469;28;20594;-71
2022/01/25 09:59:17;;;;;;;49.05;18.27;;;;;;;3.73;51.83;103344.31;5005369;28;20045;-70
2022/01/25 10:01:43;;;;;;;51.58;19.17;;;;;;;3.73;52.29;103349.50;5005031;28;20029;-71
2022/01/25 10:04:24;;;;;;;49.08;20.58;;;;;;;3.38;53.42;103346.78;5005100;28;20510;-71
2022/01/25 10:06:50;;;;;;;54.88;18.88;;;;;;;3.17;53.35;103349.53;5003251;28;20664;-70
2022/01/25 10:09:16;;;;;;;52.63;18.85;;;;;;;3.86;52.18;103350.72;5006931;28;20029;-71
2022/01/25 10:11:42;;;;;;;48.45;17.90;;;;;;;3.87;51.85;103352.47;5005496;28;20037;-72
2022/01/25 10:14:07;;;;;;;59.22;20.38;;;;;;;4.15;51.12;103348.06;5006255;28;20524;-71
2022/01/25 10:16:35;;;;;;;57.65;21.02;;;;;;;4.08;51.38;103353.91;5020777;28;20033;-71
2022/01/25 10:19:04;;;;;;;55.55;21.83;;;;;;;4.11;51.49;103356.56;5004692;28;20120;-71
2022/01/25 10:21:32;;;;;;;51.45;20.10;;;;;;;3.69;52.32;103358.00;5012671;28;20247;-71
2022/01/25 10:24:08;;;;;;;56.42;21.35;;;;;;;4.27;51.21;103371.66;5007911;28;20041;-72
2022/01/25 10:26:52;;;;;;;47.78;18.92;;;;;;;4.20;51.55;103368.03;4999378;28;20045;-73
2022/01/25 10:29:22;;;;;;;56.65;19.00;;;;;;;4.48;51.14;103378.25;5007400;28;20057;-73
2022/01/25 10:31:57;;;;;;;35.50;14.55;;;;;;;4.18;51.23;103369.69;5006436;28;20107;-71
2022/01/25 10:34:32;;;;;;;53.78;18.70;;;;;;;4.25;51.33;103369.88;4991577;28;20069;-71
2022/01/25 10:37:00;;;;;;;56.95;20.63;;;;;;;3.95;51.86;103371.66;4987651;28;20041;-71
2022/01/25 10:39:31;;;;;;;44.63;18.40;;;;;;;4.02;51.65;103364.94;4996173;28;20475;-72
2022/01/25 10:42:11;;;;;;;52.43;19.67;;;;;;;3.79;52.23;103369.50;4988190;28;20661;-72
2022/01/25 10:44:56;;;;;;;48.67;18.75;;;;;;;4.32;51.36;103367.50;4989768;28;20040;-72
2022/01/25 10:47:46;;;;;;;47.65;20.08;;;;;;;3.92;52.06;103366.44;4987221;28;20141;-73
2022/01/25 10:50:21;;;;;;;44.72;17.52;;;;;;;4.07;52.15;103365.94;4989635;28;20080;-72
2022/01/25 10:53:01;;;;;;;52.17;20.30;;;;;;;3.89;52.60;103368.91;4991482;28;20050;-71
2022/01/25 10:55:39;;;;;;;51.40;21.23;;;;;;;3.68;53.15;103370.91;4988233;28;20033;-70
2022/01/25 10:58:05;;;;;;;45.38;18.83;;;;;;;4.18;52.02;103374.00;4990301;28;20368;-72
2022/01/25 11:00:35;;;;;;;52.20;22.00;;;;;;;3.77;52.85;103371.16;4986921;28;20111;-70
2022/01/25 11:03:05;;;;;;;49.80;21.00;;;;;;;3.99;51.93;103376.09;4999960;28;20095;-73
2022/01/25 11:05:32;;;;;;;52.78;20.92;;;;;;;4.08;52.24;103372.91;5008857;28;20041;-72
2022/01/25 11:08:10;;;;;;;49.47;18.35;;;;;;;4.15;52.25;103373.94;5005671;28;20057;-72
2022/01/25 11:10:35;;;;;;;51.47;18.17;;;;;;;3.94;52.85;103372.53;4989391;28;20507;-70
2022/01/25 11:13:21;;;;;;;46.47;18.00;;;;;;;3.80;52.63;103361.75;4989031;28;20042;-72
2022/01/25 11:15:47;;;;;;;56.70;20.45;;;;;;;3.70;53.64;103364.06;4991508;28;20549;-71
2022/01/25 11:18:12;;;;;;;52.55;19.00;;;;;;;4.08;52.96;103357.38;4987561;28;20120;-71
2022/01/25 11:20:38;;;;;;;51.03;19.92;;;;;;;3.86;53.21;103350.72;4987417;28;20133;-72
2022/01/25 11:23:04;;;;;;;45.97;18.55;;;;;;;3.78;53.22;103347.94;4990575;28;20069;-71
2022/01/25 11:25:30;;;;;;;48.80;17.85;;;;;;;4.10;53.53;103350.53;5003457;28;20038;-71
2022/01/25 11:27:58;;;;;;;55.97;19.35;;;;;;;4.38;51.81;103339.16;5001807;28;20050;-71
2022/01/25 11:30:24;;;;;;;53.65;18.90;;;;;;;4.57;51.60;103342.22;4988478;28;20030;-71
2022/01/25 11:32:50;;;;;;;49.30;18.48;;;;;;;4.32;51.78;103341.59;5003330;28;20048;-72
2022/01/25 11:35:20;;;;;;;56.00;19.50;;;;;;;4.62;51.72;103344.06;4988776;28;20045;-72
2022/01/25 11:37:48;;;;;;;44.05;17.60;;;;;;;4.63;52.08;103342.34;4989037;28;20133;-71
2022/01/25 11:40:28;;;;;;;51.55;18.08;;;;;;;4.07;51.80;103344.38;4989632;28;20061;-71
2022/01/25 11:42:58;;;;;;;50.10;19.60;;;;;;;4.45;51.59;103337.59;4988411;28;20046;-72
2022/01/25 11:45:29;;;;;;;47.92;19.50;;;;;;;4.38;51.90;103333.97;4985551;28;20034;-72
2022/01/25 11:47:55;;;;;;;48.15;17.38;;;;;;;4.57;51.21;103327.56;5000339;28;20062;-72
2022/01/25 11:50:27;;;;;;;42.92;18.02;;;;;;;3.98;52.65;103330.38;4974759;28;20039;-73
2022/01/25 11:52:55;;;;;;;50.38;18.75;;;;;;;4.25;52.45;103334.50;4970910;28;20034;-71
2022/01/25 11:55:26;;;;;;;53.05;20.08;;;;;;;4.52;51.48;103331.75;4978808;28;20474;-72
2022/01/25 11:58:00;;;;;;;40.92;17.33;;;;;;;4.84;51.13;103319.56;4982066;28;22957;-71
2022/01/25 12:00:51;;;;;;;52.05;18.65;;;;;;;4.45;51.70;103324.66;5007804;28;20026;-72
2022/01/25 12:03:29;;;;;;;42.15;16.52;;;;;;;4.67;51.45;103318.28;4977188;28;20452;-72
2022/01/25 12:06:08;;;;;;;47.03;17.92;;;;;;;4.71;51.22;103314.06;4991952;28;20026;-72
2022/01/25 12:08:50;;;;;;;41.10;16.58;;;;;;;5.05;51.16;103300.16;4976848;28;20128;-70
2022/01/25 12:11:25;;;;;;;42.63;17.17;;;;;;;4.87;51.26;103313.56;4975072;28;20031;-72
2022/01/25 12:14:22;;;;;;;40.83;16.20;;;;;;;4.57;51.08;103305.97;4973253;28;21159;-72
2022/01/25 12:16:54;;;;;;;49.03;16.38;;;;;;;4.99;51.37;103306.13;4975107;28;20022;-72
2022/01/25 12:19:30;;;;;;;38.47;16.33;;;;;;;4.82;50.52;103310.00;4959912;28;20075;-72
2022/01/25 12:22:00;;;;;;;36.42;15.30;;;;;;;4.57;52.13;103312.00;4976910;28;20165;-71
2022/01/25 12:24:38;;;;;;;43.08;15.43;;;;;;;4.28;52.58;103306.13;5010640;28;20077;-72
2022/01/25 12:27:19;;;;;;;42.78;16.15;;;;;;;4.74;52.04;103303.75;4987349;28;20053;-72
2022/01/25 12:29:57;;;;;;;36.47;15.05;;;;;;;4.77;51.82;103298.66;4995872;28;20029;-72
2022/01/25 12:32:25;;;;;;;37.58;15.07;;;;;;;4.76;51.60;103297.75;4995753;28;20063;-72
2022/01/25 12:34:58;;;;;;;36.72;14.02;;;;;;;4.43;52.07;103298.72;5001257;28;21565;-72
2022/01/25 12:37:42;;;;;;;31.15;12.98;;;;;;;4.46;52.07;103304.81;4989100;28;20388;-72
2022/01/25 12:40:31;;;;;;;36.70;13.30;;;;;;;4.65;51.83;103294.03;4975612;28;20018;-72
2022/01/25 12:43:10;;;;;;;30.63;12.50;;;;;;;4.37;52.26;103287.34;4979345;28;20117;-72
2022/01/25 12:45:40;;;;;;;32.33;11.10;;;;;;;4.90;51.99;103281.69;4976324;28;20317;-72
2022/01/25 12:48:15;;;;;;;28.65;11.38;;;;;;;4.90;51.61;103279.09;4985782;28;20503;-72
2022/01/25 12:50:45;;;;;;;28.73;10.82;;;;;;;4.55;52.88;103279.16;4995162;28;20036;-71
2022/01/25 12:53:14;;;;;;;32.30;13.88;;;;;;;5.05;52.16;103277.72;4996262;28;20881;-73
2022/01/25 12:55:43;;;;;;;26.55;10.68;;;;;;;5.28;51.43;103279.03;5012220;28;20022;-72
2022/01/25 12:58:09;;;;;;;31.02;12.40;;;;;;;5.32;51.28;103275.69;5000095;28;20742;-72
2022/01/25 13:00:38;;;;;;;35.30;13.93;;;;;;;5.15;51.88;103268.44;4992459;28;20034;-71
2022/01/25 13:03:14;;;;;;;29.02;13.10;;;;;;;5.50;51.81;103273.44;4975336;28;20091;-72
2022/01/25 13:06:06;;;;;;;42.20;14.38;;;;;;;5.19;52.28;103272.84;4974811;28;20109;-73
2022/01/25 13:08:34;;;;;;;39.67;14.13;;;;;;;5.29;51.02;103273.03;4975068;28;20380;-72
2022/01/25 13:16:59;;;;;;;30.40;12.27;;;;;;;5.43;50.33;103268.97;4979082;28;20037;-72